sensor_id;sensor_type;location;lat;lon;timestamp;P1;durP1;ratioP1;P2;durP2;ratioP2
37945;SDS011;23769;52.478;13.448;2023-10-09T00:02:02;3.15;;;1.90;;
37945;SDS011;23769;52.478;13.448;2023-10-09T00:04:32;4.35;;;2.20;;
37945;SDS011;23769;52.478;13.448;2023-10-09T00:07:01;4.18;;;2.70;;
37945;SDS011;23769;52.478;13.448;2023-10-09T00:09:32;4.97;;;2.55;;
37945;SDS011;23769;52.478;13.448;2023-10-09T00:12:12;5.25;;;2.72;;
37945;SDS011;23769;52.478;13.448;2023-10-09T00:14:41;4.38;;;2.65;;
37945;SDS011;23769;52.478;13.448;2023-10-09T00:17:13;3.28;;;2.10;;
37945;SDS011;23769;52.478;13.448;2023-10-09T00:19:43;4.40;;;2.47;;
37945;SDS011;23769;52.478;13.448;2023-10-09T00:22:16;4.15;;;2.10;;
37945;SDS011;23769;52.478;13.448;2023-10-09T00:24:53;4.75;;;2.35;;
37945;SDS011;23769;52.478;13.448;2023-10-09T00:27:36;5.00;;;2.17;;
37945;SDS011;23769;52.478;13.448;2023-10-09T00:30:06;3.10;;;2.10;;
37945;SDS011;23769;52.478;13.448;2023-10-09T00:32:34;3.83;;;2.38;;
37945;SDS011;23769;52.478;13.448;2023-10-09T00:35:02;5.22;;;2.42;;
37945;SDS011;23769;52.478;13.448;2023-10-09T00:37:59;3.60;;;2.17;;
37945;SDS011;23769;52.478;13.448;2023-10-09T00:40:39;4.22;;;2.30;;
37945;SDS011;23769;52.478;13.448;2023-10-09T00:43:13;5.15;;;2.17;;
37945;SDS011;23769;52.478;13.448;2023-10-09T00:45:40;3.55;;;1.50;;
37945;SDS011;23769;52.478;13.448;2023-10-09T00:48:10;3.80;;;2.10;;
37945;SDS011;23769;52.478;13.448;2023-10-09T00:50:39;3.55;;;2.10;;
37945;SDS011;23769;52.478;13.448;2023-10-09T00:53:17;4.88;;;2.28;;
37945;SDS011;23769;52.478;13.448;2023-10-09T00:55:55;6.25;;;2.40;;
37945;SDS011;23769;52.478;13.448;2023-10-09T00:58:24;4.22;;;2.30;;
37945;SDS011;23769;52.478;13.448;2023-10-09T01:00:56;4.07;;;2.28;;
37945;SDS011;23769;52.478;13.448;2023-10-09T01:03:24;5.55;;;2.10;;
37945;SDS011;23769;52.478;13.448;2023-10-09T01:05:53;5.30;;;2.47;;
37945;SDS011;23769;52.478;13.448;2023-10-09T01:08:23;8.85;;;4.30;;
37945;SDS011;23769;52.478;13.448;2023-10-09T01:10:57;13.27;;;5.63;;
37945;SDS011;23769;52.478;13.448;2023-10-09T01:13:35;18.00;;;8.10;;
37945;SDS011;23769;52.478;13.448;2023-10-09T01:16:07;19.52;;;9.90;;
37945;SDS011;23769;52.478;13.448;2023-10-09T01:18:40;5.20;;;2.90;;
37945;SDS011;23769;52.478;13.448;2023-10-09T01:21:08;11.25;;;5.10;;
37945;SDS011;23769;52.478;13.448;2023-10-09T01:23:39;32.22;;;16.38;;
37945;SDS011;23769;52.478;13.448;2023-10-09T01:26:23;10.32;;;5.05;;
37945;SDS011;23769;52.478;13.448;2023-10-09T01:28:51;13.70;;;7.38;;
37945;SDS011;23769;52.478;13.448;2023-10-09T01:31:23;6.35;;;3.65;;
37945;SDS011;23769;52.478;13.448;2023-10-09T01:33:51;6.90;;;4.22;;
37945;SDS011;23769;52.478;13.448;2023-10-09T01:36:24;4.75;;;2.30;;
37945;SDS011;23769;52.478;13.448;2023-10-09T01:38:59;5.15;;;2.10;;
37945;SDS011;23769;52.478;13.448;2023-10-09T01:41:28;5.63;;;2.13;;
37945;SDS011;23769;52.478;13.448;2023-10-09T01:43:59;3.47;;;1.95;;
37945;SDS011;23769;52.478;13.448;2023-10-09T01:46:35;5.22;;;2.25;;
37945;SDS011;23769;52.478;13.448;2023-10-09T01:49:02;4.20;;;2.05;;
37945;SDS011;23769;52.478;13.448;2023-10-09T01:51:43;4.45;;;1.80;;
37945;SDS011;23769;52.478;13.448;2023-10-09T01:54:13;5.25;;;2.45;;
37945;SDS011;23769;52.478;13.448;2023-10-09T01:56:42;3.90;;;2.22;;
37945;SDS011;23769;52.478;13.448;2023-10-09T01:59:12;3.22;;;1.90;;
37945;SDS011;23769;52.478;13.448;2023-10-09T02:01:41;4.07;;;2.30;;
37945;SDS011;23769;52.478;13.448;2023-10-09T02:04:13;4.10;;;2.47;;
37945;SDS011;23769;52.478;13.448;2023-10-09T02:06:46;3.47;;;2.03;;
37945;SDS011;23769;52.478;13.448;2023-10-09T02:09:18;4.93;;;2.10;;
37945;SDS011;23769;52.478;13.448;2023-10-09T02:11:56;5.20;;;2.22;;
37945;SDS011;23769;52.478;13.448;2023-10-09T02:14:23;3.40;;;2.47;;
37945;SDS011;23769;52.478;13.448;2023-10-09T02:16:51;3.30;;;1.85;;
37945;SDS011;23769;52.478;13.448;2023-10-09T02:19:38;4.53;;;2.20;;
37945;SDS011;23769;52.478;13.448;2023-10-09T02:22:07;3.85;;;2.38;;
37945;SDS011;23769;52.478;13.448;2023-10-09T02:24:40;6.13;;;2.42;;
37945;SDS011;23769;52.478;13.448;2023-10-09T02:27:14;5.63;;;2.20;;
37945;SDS011;23769;52.478;13.448;2023-10-09T02:30:03;4.95;;;2.22;;
37945;SDS011;23769;52.478;13.448;2023-10-09T02:32:40;6.20;;;2.33;;
37945;SDS011;23769;52.478;13.448;2023-10-09T02:35:08;3.97;;;2.00;;
37945;SDS011;23769;52.478;13.448;2023-10-09T02:37:43;5.22;;;2.20;;
37945;SDS011;23769;52.478;13.448;2023-10-09T02:40:13;5.13;;;2.20;;
37945;SDS011;23769;52.478;13.448;2023-10-09T02:42:50;4.68;;;2.30;;
37945;SDS011;23769;52.478;13.448;2023-10-09T02:45:17;4.93;;;2.67;;
37945;SDS011;23769;52.478;13.448;2023-10-09T02:47:44;5.03;;;3.00;;
37945;SDS011;23769;52.478;13.448;2023-10-09T02:50:14;6.95;;;2.85;;
37945;SDS011;23769;52.478;13.448;2023-10-09T02:52:46;5.63;;;2.60;;
37945;SDS011;23769;52.478;13.448;2023-10-09T02:55:19;5.57;;;2.70;;
37945;SDS011;23769;52.478;13.448;2023-10-09T02:57:51;5.63;;;2.70;;
37945;SDS011;23769;52.478;13.448;2023-10-09T03:00:29;6.45;;;3.33;;
37945;SDS011;23769;52.478;13.448;2023-10-09T03:02:57;4.70;;;2.53;;
37945;SDS011;23769;52.478;13.448;2023-10-09T03:05:25;5.90;;;3.17;;
37945;SDS011;23769;52.478;13.448;2023-10-09T03:07:53;5.30;;;3.22;;
37945;SDS011;23769;52.478;13.448;2023-10-09T03:10:23;4.63;;;2.78;;
37945;SDS011;23769;52.478;13.448;2023-10-09T03:12:50;5.97;;;3.65;;
37945;SDS011;23769;52.478;13.448;2023-10-09T03:15:18;6.03;;;3.17;;
37945;SDS011;23769;52.478;13.448;2023-10-09T03:17:45;6.13;;;3.03;;
37945;SDS011;23769;52.478;13.448;2023-10-09T03:20:13;7.65;;;3.80;;
37945;SDS011;23769;52.478;13.448;2023-10-09T03:22:42;6.80;;;3.28;;
37945;SDS011;23769;52.478;13.448;2023-10-09T03:25:11;7.57;;;3.38;;
37945;SDS011;23769;52.478;13.448;2023-10-09T03:27:40;5.68;;;3.35;;
37945;SDS011;23769;52.478;13.448;2023-10-09T03:30:10;8.07;;;3.53;;
37945;SDS011;23769;52.478;13.448;2023-10-09T03:32:41;5.57;;;3.28;;
37945;SDS011;23769;52.478;13.448;2023-10-09T03:35:09;5.25;;;3.03;;
37945;SDS011;23769;52.478;13.448;2023-10-09T03:37:39;5.15;;;3.25;;
37945;SDS011;23769;52.478;13.448;2023-10-09T03:40:07;6.05;;;3.22;;
37945;SDS011;23769;52.478;13.448;2023-10-09T03:42:43;6.18;;;3.38;;
37945;SDS011;23769;52.478;13.448;2023-10-09T03:45:10;6.47;;;3.35;;
37945;SDS011;23769;52.478;13.448;2023-10-09T03:47:49;4.60;;;2.97;;
37945;SDS011;23769;52.478;13.448;2023-10-09T03:50:21;4.60;;;2.90;;
37945;SDS011;23769;52.478;13.448;2023-10-09T03:52:52;4.93;;;2.60;;
37945;SDS011;23769;52.478;13.448;2023-10-09T03:55:20;5.55;;;3.22;;
37945;SDS011;23769;52.478;13.448;2023-10-09T04:00:23;4.35;;;2.88;;
37945;SDS011;23769;52.478;13.448;2023-10-09T04:02:55;5.93;;;2.92;;
37945;SDS011;23769;52.478;13.448;2023-10-09T04:05:23;5.00;;;2.60;;
37945;SDS011;23769;52.478;13.448;2023-10-09T04:07:50;4.57;;;3.05;;
37945;SDS011;23769;52.478;13.448;2023-10-09T04:10:19;6.15;;;2.78;;
37945;SDS011;23769;52.478;13.448;2023-10-09T04:13:03;4.30;;;2.92;;
37945;SDS011;23769;52.478;13.448;2023-10-09T04:15:38;7.32;;;2.72;;
37945;SDS011;23769;52.478;13.448;2023-10-09T04:18:07;7.10;;;2.90;;
37945;SDS011;23769;52.478;13.448;2023-10-09T04:20:40;5.45;;;2.90;;
37945;SDS011;23769;52.478;13.448;2023-10-09T04:23:32;7.68;;;3.88;;
37945;SDS011;23769;52.478;13.448;2023-10-09T04:26:22;9.40;;;4.50;;
37945;SDS011;23769;52.478;13.448;2023-10-09T04:28:50;6.25;;;4.30;;
37945;SDS011;23769;52.478;13.448;2023-10-09T04:31:19;8.95;;;4.53;;
37945;SDS011;23769;52.478;13.448;2023-10-09T04:33:50;7.72;;;3.28;;
37945;SDS011;23769;52.478;13.448;2023-10-09T04:36:40;7.07;;;3.92;;
37945;SDS011;23769;52.478;13.448;2023-10-09T04:39:14;5.90;;;3.25;;
37945;SDS011;23769;52.478;13.448;2023-10-09T04:41:55;5.28;;;3.58;;
37945;SDS011;23769;52.478;13.448;2023-10-09T04:44:44;5.40;;;3.35;;
37945;SDS011;23769;52.478;13.448;2023-10-09T04:47:46;8.90;;;3.92;;
37945;SDS011;23769;52.478;13.448;2023-10-09T04:50:23;9.57;;;3.20;;
37945;SDS011;23769;52.478;13.448;2023-10-09T04:53:07;6.47;;;3.22;;
37945;SDS011;23769;52.478;13.448;2023-10-09T04:55:48;7.57;;;3.85;;
37945;SDS011;23769;52.478;13.448;2023-10-09T04:58:23;4.63;;;3.33;;
37945;SDS011;23769;52.478;13.448;2023-10-09T05:00:51;6.38;;;3.50;;
37945;SDS011;23769;52.478;13.448;2023-10-09T05:03:36;5.97;;;3.40;;
37945;SDS011;23769;52.478;13.448;2023-10-09T05:06:10;8.05;;;3.95;;
37945;SDS011;23769;52.478;13.448;2023-10-09T05:08:58;6.78;;;3.00;;
37945;SDS011;23769;52.478;13.448;2023-10-09T05:11:34;5.50;;;2.92;;
37945;SDS011;23769;52.478;13.448;2023-10-09T05:14:15;5.22;;;3.28;;
37945;SDS011;23769;52.478;13.448;2023-10-09T05:16:51;6.10;;;3.63;;
37945;SDS011;23769;52.478;13.448;2023-10-09T05:19:27;5.60;;;3.67;;
37945;SDS011;23769;52.478;13.448;2023-10-09T05:22:12;5.57;;;3.03;;
37945;SDS011;23769;52.478;13.448;2023-10-09T05:24:54;5.57;;;3.25;;
37945;SDS011;23769;52.478;13.448;2023-10-09T05:27:21;4.82;;;3.30;;
37945;SDS011;23769;52.478;13.448;2023-10-09T05:30:09;4.50;;;2.50;;
37945;SDS011;23769;52.478;13.448;2023-10-09T05:32:54;7.32;;;3.50;;
37945;SDS011;23769;52.478;13.448;2023-10-09T05:35:25;7.40;;;2.75;;
37945;SDS011;23769;52.478;13.448;2023-10-09T05:38:27;4.40;;;2.75;;
37945;SDS011;23769;52.478;13.448;2023-10-09T05:40:55;6.80;;;3.83;;
37945;SDS011;23769;52.478;13.448;2023-10-09T05:43:43;6.35;;;3.35;;
37945;SDS011;23769;52.478;13.448;2023-10-09T05:46:28;7.10;;;3.05;;
37945;SDS011;23769;52.478;13.448;2023-10-09T05:49:00;5.00;;;3.38;;
37945;SDS011;23769;52.478;13.448;2023-10-09T05:51:35;6.10;;;2.67;;
37945;SDS011;23769;52.478;13.448;2023-10-09T05:54:09;4.90;;;2.55;;
37945;SDS011;23769;52.478;13.448;2023-10-09T05:57:06;4.57;;;3.00;;
37945;SDS011;23769;52.478;13.448;2023-10-09T05:59:49;4.82;;;2.67;;
37945;SDS011;23769;52.478;13.448;2023-10-09T06:02:35;4.95;;;2.63;;
37945;SDS011;23769;52.478;13.448;2023-10-09T06:05:24;5.72;;;2.78;;
37945;SDS011;23769;52.478;13.448;2023-10-09T06:08:08;5.63;;;2.45;;
37945;SDS011;23769;52.478;13.448;2023-10-09T06:10:38;5.45;;;3.42;;
37945;SDS011;23769;52.478;13.448;2023-10-09T06:13:06;4.28;;;2.40;;
37945;SDS011;23769;52.478;13.448;2023-10-09T06:15:36;4.90;;;2.47;;
37945;SDS011;23769;52.478;13.448;2023-10-09T06:18:40;5.35;;;2.58;;
37945;SDS011;23769;52.478;13.448;2023-10-09T06:21:18;4.40;;;2.42;;
37945;SDS011;23769;52.478;13.448;2023-10-09T06:24:01;6.00;;;2.65;;
37945;SDS011;23769;52.478;13.448;2023-10-09T06:26:40;4.85;;;2.40;;
37945;SDS011;23769;52.478;13.448;2023-10-09T06:29:16;5.15;;;2.53;;
37945;SDS011;23769;52.478;13.448;2023-10-09T06:31:58;6.35;;;2.85;;
37945;SDS011;23769;52.478;13.448;2023-10-09T06:34:41;4.53;;;2.53;;
37945;SDS011;23769;52.478;13.448;2023-10-09T06:37:11;5.10;;;2.47;;
37945;SDS011;23769;52.478;13.448;2023-10-09T06:40:00;4.10;;;2.50;;
37945;SDS011;23769;52.478;13.448;2023-10-09T06:43:08;4.65;;;2.58;;
37945;SDS011;23769;52.478;13.448;2023-10-09T06:45:42;4.47;;;2.17;;
37945;SDS011;23769;52.478;13.448;2023-10-09T06:48:19;5.88;;;2.95;;
37945;SDS011;23769;52.478;13.448;2023-10-09T06:51:05;4.03;;;2.60;;
37945;SDS011;23769;52.478;13.448;2023-10-09T06:53:38;5.60;;;3.20;;
37945;SDS011;23769;52.478;13.448;2023-10-09T06:59:13;5.63;;;2.40;;
37945;SDS011;23769;52.478;13.448;2023-10-09T07:01:47;4.72;;;3.00;;
37945;SDS011;23769;52.478;13.448;2023-10-09T07:04:35;6.65;;;2.78;;
37945;SDS011;23769;52.478;13.448;2023-10-09T07:07:19;6.03;;;2.42;;
37945;SDS011;23769;52.478;13.448;2023-10-09T07:09:46;5.82;;;2.80;;
37945;SDS011;23769;52.478;13.448;2023-10-09T07:12:27;5.20;;;3.55;;
37945;SDS011;23769;52.478;13.448;2023-10-09T07:14:59;6.63;;;3.47;;
37945;SDS011;23769;52.478;13.448;2023-10-09T07:17:49;5.00;;;2.75;;
37945;SDS011;23769;52.478;13.448;2023-10-09T07:20:17;5.20;;;2.88;;
37945;SDS011;23769;52.478;13.448;2023-10-09T07:22:59;4.93;;;2.88;;
37945;SDS011;23769;52.478;13.448;2023-10-09T07:25:39;4.88;;;3.17;;
37945;SDS011;23769;52.478;13.448;2023-10-09T07:28:21;5.45;;;3.22;;
37945;SDS011;23769;52.478;13.448;2023-10-09T07:31:09;8.30;;;3.20;;
37945;SDS011;23769;52.478;13.448;2023-10-09T07:33:49;3.65;;;2.50;;
37945;SDS011;23769;52.478;13.448;2023-10-09T07:36:32;8.65;;;3.20;;
37945;SDS011;23769;52.478;13.448;2023-10-09T07:39:06;8.18;;;3.63;;
37945;SDS011;23769;52.478;13.448;2023-10-09T07:41:40;5.03;;;3.28;;
37945;SDS011;23769;52.478;13.448;2023-10-09T07:44:20;6.32;;;3.15;;
37945;SDS011;23769;52.478;13.448;2023-10-09T07:47:05;5.25;;;2.97;;
37945;SDS011;23769;52.478;13.448;2023-10-09T07:49:45;4.72;;;2.70;;
37945;SDS011;23769;52.478;13.448;2023-10-09T07:52:24;6.85;;;3.58;;
37945;SDS011;23769;52.478;13.448;2023-10-09T07:54:52;6.80;;;2.92;;
37945;SDS011;23769;52.478;13.448;2023-10-09T07:57:26;4.95;;;2.80;;
37945;SDS011;23769;52.478;13.448;2023-10-09T08:00:04;5.75;;;3.38;;
37945;SDS011;23769;52.478;13.448;2023-10-09T08:02:39;4.50;;;2.70;;
37945;SDS011;23769;52.478;13.448;2023-10-09T08:05:06;6.05;;;2.60;;
37945;SDS011;23769;52.478;13.448;2023-10-09T08:07:44;5.30;;;2.75;;
37945;SDS011;23769;52.478;13.448;2023-10-09T08:10:20;5.43;;;2.75;;
37945;SDS011;23769;52.478;13.448;2023-10-09T08:13:05;5.35;;;2.97;;
37945;SDS011;23769;52.478;13.448;2023-10-09T08:16:05;5.43;;;2.70;;
37945;SDS011;23769;52.478;13.448;2023-10-09T08:18:42;5.50;;;3.22;;
37945;SDS011;23769;52.478;13.448;2023-10-09T08:21:11;5.82;;;2.80;;
37945;SDS011;23769;52.478;13.448;2023-10-09T08:23:45;5.75;;;2.70;;
37945;SDS011;23769;52.478;13.448;2023-10-09T08:26:15;6.00;;;2.95;;
37945;SDS011;23769;52.478;13.448;2023-10-09T08:28:54;5.63;;;3.67;;
37945;SDS011;23769;52.478;13.448;2023-10-09T08:31:42;5.25;;;3.08;;
37945;SDS011;23769;52.478;13.448;2023-10-09T08:34:22;6.15;;;3.72;;
37945;SDS011;23769;52.478;13.448;2023-10-09T08:36:51;4.35;;;2.72;;
37945;SDS011;23769;52.478;13.448;2023-10-09T08:39:19;4.95;;;3.08;;
37945;SDS011;23769;52.478;13.448;2023-10-09T08:41:58;4.75;;;2.97;;
37945;SDS011;23769;52.478;13.448;2023-10-09T08:44:26;3.65;;;2.58;;
37945;SDS011;23769;52.478;13.448;2023-10-09T08:46:58;6.38;;;3.40;;
37945;SDS011;23769;52.478;13.448;2023-10-09T08:49:26;5.40;;;2.65;;
37945;SDS011;23769;52.478;13.448;2023-10-09T08:51:53;5.35;;;2.92;;
37945;SDS011;23769;52.478;13.448;2023-10-09T08:54:21;5.57;;;3.05;;
37945;SDS011;23769;52.478;13.448;2023-10-09T08:56:48;4.53;;;2.58;;
37945;SDS011;23769;52.478;13.448;2023-10-09T08:59:15;4.45;;;2.58;;
37945;SDS011;23769;52.478;13.448;2023-10-09T09:01:44;6.53;;;3.47;;
37945;SDS011;23769;52.478;13.448;2023-10-09T09:06:58;5.63;;;3.45;;
37945;SDS011;23769;52.478;13.448;2023-10-09T09:09:27;6.63;;;3.30;;
37945;SDS011;23769;52.478;13.448;2023-10-09T09:11:57;5.75;;;3.67;;
37945;SDS011;23769;52.478;13.448;2023-10-09T09:14:35;5.45;;;3.33;;
37945;SDS011;23769;52.478;13.448;2023-10-09T09:17:03;7.10;;;3.08;;
37945;SDS011;23769;52.478;13.448;2023-10-09T09:19:31;6.55;;;3.30;;
37945;SDS011;23769;52.478;13.448;2023-10-09T09:22:04;5.43;;;3.53;;
37945;SDS011;23769;52.478;13.448;2023-10-09T09:24:38;5.10;;;3.38;;
37945;SDS011;23769;52.478;13.448;2023-10-09T09:27:11;5.22;;;3.35;;
37945;SDS011;23769;52.478;13.448;2023-10-09T09:29:46;7.63;;;3.88;;
37945;SDS011;23769;52.478;13.448;2023-10-09T09:32:26;7.53;;;3.70;;
37945;SDS011;23769;52.478;13.448;2023-10-09T09:35:03;4.38;;;2.83;;
37945;SDS011;23769;52.478;13.448;2023-10-09T09:37:32;4.57;;;3.08;;
37945;SDS011;23769;52.478;13.448;2023-10-09T09:40:15;8.05;;;3.78;;
37945;SDS011;23769;52.478;13.448;2023-10-09T09:42:54;6.65;;;3.83;;
37945;SDS011;23769;52.478;13.448;2023-10-09T09:45:29;5.00;;;3.42;;
37945;SDS011;23769;52.478;13.448;2023-10-09T09:47:58;9.18;;;4.05;;
37945;SDS011;23769;52.478;13.448;2023-10-09T09:50:30;5.28;;;3.30;;
37945;SDS011;23769;52.478;13.448;2023-10-09T09:52:59;6.57;;;3.85;;
37945;SDS011;23769;52.478;13.448;2023-10-09T09:55:28;4.85;;;3.13;;
37945;SDS011;23769;52.478;13.448;2023-10-09T09:57:59;5.30;;;3.67;;
37945;SDS011;23769;52.478;13.448;2023-10-09T10:00:28;7.53;;;4.72;;
37945;SDS011;23769;52.478;13.448;2023-10-09T10:03:09;4.90;;;3.70;;
37945;SDS011;23769;52.478;13.448;2023-10-09T10:05:37;8.07;;;5.07;;
37945;SDS011;23769;52.478;13.448;2023-10-09T10:08:08;10.65;;;6.10;;
37945;SDS011;23769;52.478;13.448;2023-10-09T10:10:38;8.45;;;4.05;;
37945;SDS011;23769;52.478;13.448;2023-10-09T10:13:15;5.95;;;3.90;;
37945;SDS011;23769;52.478;13.448;2023-10-09T10:15:58;5.60;;;3.53;;
37945;SDS011;23769;52.478;13.448;2023-10-09T10:18:31;7.80;;;3.75;;
37945;SDS011;23769;52.478;13.448;2023-10-09T10:21:10;6.03;;;3.05;;
37945;SDS011;23769;52.478;13.448;2023-10-09T10:23:42;5.95;;;3.47;;
37945;SDS011;23769;52.478;13.448;2023-10-09T10:26:19;6.43;;;4.10;;
37945;SDS011;23769;52.478;13.448;2023-10-09T10:31:56;6.00;;;3.75;;
37945;SDS011;23769;52.478;13.448;2023-10-09T10:34:25;8.07;;;4.53;;
37945;SDS011;23769;52.478;13.448;2023-10-09T10:36:53;5.32;;;3.97;;
37945;SDS011;23769;52.478;13.448;2023-10-09T10:39:26;5.45;;;3.70;;
37945;SDS011;23769;52.478;13.448;2023-10-09T10:42:07;8.77;;;4.07;;
37945;SDS011;23769;52.478;13.448;2023-10-09T10:44:40;6.22;;;4.43;;
37945;SDS011;23769;52.478;13.448;2023-10-09T10:47:10;6.20;;;3.70;;
37945;SDS011;23769;52.478;13.448;2023-10-09T10:49:57;7.18;;;4.70;;
37945;SDS011;23769;52.478;13.448;2023-10-09T10:52:36;12.80;;;7.20;;
37945;SDS011;23769;52.478;13.448;2023-10-09T10:55:10;6.53;;;3.50;;
37945;SDS011;23769;52.478;13.448;2023-10-09T10:57:54;6.88;;;4.03;;
37945;SDS011;23769;52.478;13.448;2023-10-09T11:00:26;8.88;;;6.20;;
37945;SDS011;23769;52.478;13.448;2023-10-09T11:03:07;9.32;;;5.82;;
37945;SDS011;23769;52.478;13.448;2023-10-09T11:05:42;5.82;;;3.42;;
37945;SDS011;23769;52.478;13.448;2023-10-09T11:10:48;6.35;;;4.47;;
37945;SDS011;23769;52.478;13.448;2023-10-09T11:13:22;7.65;;;3.75;;
37945;SDS011;23769;52.478;13.448;2023-10-09T11:15:58;5.05;;;3.63;;
37945;SDS011;23769;52.478;13.448;2023-10-09T11:18:39;6.88;;;4.45;;
37945;SDS011;23769;52.478;13.448;2023-10-09T11:21:12;5.38;;;3.50;;
37945;SDS011;23769;52.478;13.448;2023-10-09T11:23:59;5.20;;;3.47;;
37945;SDS011;23769;52.478;13.448;2023-10-09T11:26:49;7.07;;;5.40;;
37945;SDS011;23769;52.478;13.448;2023-10-09T11:29:20;9.65;;;7.20;;
37945;SDS011;23769;52.478;13.448;2023-10-09T11:32:15;6.93;;;4.70;;
37945;SDS011;23769;52.478;13.448;2023-10-09T11:34:43;6.70;;;5.03;;
37945;SDS011;23769;52.478;13.448;2023-10-09T11:37:17;6.97;;;4.72;;
37945;SDS011;23769;52.478;13.448;2023-10-09T11:40:03;6.05;;;4.72;;
37945;SDS011;23769;52.478;13.448;2023-10-09T11:42:49;7.65;;;5.40;;
37945;SDS011;23769;52.478;13.448;2023-10-09T11:45:23;7.50;;;4.90;;
37945;SDS011;23769;52.478;13.448;2023-10-09T11:47:53;8.68;;;5.35;;
37945;SDS011;23769;52.478;13.448;2023-10-09T11:53:07;8.27;;;5.15;;
37945;SDS011;23769;52.478;13.448;2023-10-09T11:55:35;6.13;;;4.97;;
37945;SDS011;23769;52.478;13.448;2023-10-09T11:58:04;8.95;;;5.20;;
37945;SDS011;23769;52.478;13.448;2023-10-09T12:00:32;8.50;;;5.07;;
37945;SDS011;23769;52.478;13.448;2023-10-09T12:03:10;8.65;;;6.35;;
37945;SDS011;23769;52.478;13.448;2023-10-09T12:05:39;6.68;;;4.50;;
37945;SDS011;23769;52.478;13.448;2023-10-09T12:08:10;6.40;;;4.78;;
37945;SDS011;23769;52.478;13.448;2023-10-09T12:10:40;5.97;;;3.78;;
37945;SDS011;23769;52.478;13.448;2023-10-09T12:13:09;7.70;;;4.93;;
37945;SDS011;23769;52.478;13.448;2023-10-09T12:15:36;6.57;;;4.57;;
37945;SDS011;23769;52.478;13.448;2023-10-09T12:18:04;6.85;;;4.55;;
37945;SDS011;23769;52.478;13.448;2023-10-09T12:20:34;7.60;;;4.43;;
37945;SDS011;23769;52.478;13.448;2023-10-09T12:23:02;8.07;;;5.63;;
37945;SDS011;23769;52.478;13.448;2023-10-09T12:25:31;7.30;;;5.78;;
37945;SDS011;23769;52.478;13.448;2023-10-09T12:27:58;8.90;;;6.28;;
37945;SDS011;23769;52.478;13.448;2023-10-09T12:30:28;6.72;;;5.55;;
37945;SDS011;23769;52.478;13.448;2023-10-09T12:32:55;7.88;;;5.30;;
37945;SDS011;23769;52.478;13.448;2023-10-09T12:35:23;8.15;;;5.53;;
37945;SDS011;23769;52.478;13.448;2023-10-09T12:37:51;9.35;;;6.60;;
37945;SDS011;23769;52.478;13.448;2023-10-09T12:40:20;8.10;;;5.85;;
37945;SDS011;23769;52.478;13.448;2023-10-09T12:42:54;7.40;;;6.07;;
37945;SDS011;23769;52.478;13.448;2023-10-09T12:45:24;8.13;;;6.63;;
37945;SDS011;23769;52.478;13.448;2023-10-09T12:47:54;7.57;;;5.82;;
37945;SDS011;23769;52.478;13.448;2023-10-09T12:50:24;9.93;;;6.85;;
37945;SDS011;23769;52.478;13.448;2023-10-09T12:52:57;10.07;;;7.30;;
37945;SDS011;23769;52.478;13.448;2023-10-09T12:55:34;9.13;;;6.25;;
37945;SDS011;23769;52.478;13.448;2023-10-09T12:58:03;9.05;;;5.80;;
37945;SDS011;23769;52.478;13.448;2023-10-09T13:00:32;8.43;;;5.80;;
37945;SDS011;23769;52.478;13.448;2023-10-09T13:03:03;12.35;;;7.00;;
37945;SDS011;23769;52.478;13.448;2023-10-09T13:05:41;11.85;;;7.55;;
37945;SDS011;23769;52.478;13.448;2023-10-09T13:08:17;9.25;;;6.55;;
37945;SDS011;23769;52.478;13.448;2023-10-09T13:10:46;11.77;;;7.50;;
37945;SDS011;23769;52.478;13.448;2023-10-09T13:13:19;14.50;;;8.75;;
37945;SDS011;23769;52.478;13.448;2023-10-09T13:15:47;13.73;;;9.32;;
37945;SDS011;23769;52.478;13.448;2023-10-09T13:18:16;10.15;;;6.63;;
37945;SDS011;23769;52.478;13.448;2023-10-09T13:20:43;9.18;;;6.75;;
37945;SDS011;23769;52.478;13.448;2023-10-09T13:23:11;10.88;;;7.70;;
37945;SDS011;23769;52.478;13.448;2023-10-09T13:25:41;10.63;;;6.65;;
37945;SDS011;23769;52.478;13.448;2023-10-09T13:28:09;14.02;;;8.32;;
37945;SDS011;23769;52.478;13.448;2023-10-09T13:30:37;13.07;;;8.13;;
37945;SDS011;23769;52.478;13.448;2023-10-09T13:33:15;10.27;;;6.50;;
37945;SDS011;23769;52.478;13.448;2023-10-09T13:38:16;10.15;;;7.05;;
37945;SDS011;23769;52.478;13.448;2023-10-09T13:40:43;10.93;;;7.45;;
37945;SDS011;23769;52.478;13.448;2023-10-09T13:43:10;11.40;;;6.57;;
37945;SDS011;23769;52.478;13.448;2023-10-09T13:45:41;10.25;;;6.28;;
37945;SDS011;23769;52.478;13.448;2023-10-09T13:48:16;9.50;;;7.18;;
37945;SDS011;23769;52.478;13.448;2023-10-09T13:50:46;7.60;;;5.60;;
37945;SDS011;23769;52.478;13.448;2023-10-09T13:53:13;9.77;;;6.38;;
37945;SDS011;23769;52.478;13.448;2023-10-09T13:55:41;13.02;;;8.65;;
37945;SDS011;23769;52.478;13.448;2023-10-09T13:58:09;14.05;;;9.55;;
37945;SDS011;23769;52.478;13.448;2023-10-09T14:00:39;10.32;;;6.30;;
37945;SDS011;23769;52.478;13.448;2023-10-09T14:03:08;7.70;;;6.20;;
37945;SDS011;23769;52.478;13.448;2023-10-09T14:05:40;12.63;;;9.07;;
37945;SDS011;23769;52.478;13.448;2023-10-09T14:08:20;14.95;;;8.18;;
37945;SDS011;23769;52.478;13.448;2023-10-09T14:10:51;12.30;;;8.27;;
37945;SDS011;23769;52.478;13.448;2023-10-09T14:13:19;18.98;;;12.05;;
37945;SDS011;23769;52.478;13.448;2023-10-09T14:15:51;10.10;;;7.05;;
37945;SDS011;23769;52.478;13.448;2023-10-09T14:18:19;9.90;;;7.70;;
37945;SDS011;23769;52.478;13.448;2023-10-09T14:20:48;9.38;;;6.70;;
37945;SDS011;23769;52.478;13.448;2023-10-09T14:23:21;9.43;;;6.60;;
37945;SDS011;23769;52.478;13.448;2023-10-09T14:25:49;11.73;;;8.05;;
37945;SDS011;23769;52.478;13.448;2023-10-09T14:28:21;11.95;;;7.47;;
37945;SDS011;23769;52.478;13.448;2023-10-09T14:30:53;7.33;;;5.63;;
37945;SDS011;23769;52.478;13.448;2023-10-09T14:33:24;13.10;;;7.57;;
37945;SDS011;23769;52.478;13.448;2023-10-09T14:35:55;11.00;;;7.00;;
37945;SDS011;23769;52.478;13.448;2023-10-09T14:38:23;10.77;;;6.68;;
37945;SDS011;23769;52.478;13.448;2023-10-09T14:40:57;9.95;;;6.40;;
37945;SDS011;23769;52.478;13.448;2023-10-09T14:43:25;10.77;;;7.43;;
37945;SDS011;23769;52.478;13.448;2023-10-09T14:45:58;13.45;;;8.82;;
37945;SDS011;23769;52.478;13.448;2023-10-09T14:48:25;10.40;;;7.03;;
37945;SDS011;23769;52.478;13.448;2023-10-09T14:50:55;13.38;;;7.20;;
37945;SDS011;23769;52.478;13.448;2023-10-09T14:53:29;12.70;;;8.88;;
37945;SDS011;23769;52.478;13.448;2023-10-09T14:55:57;13.77;;;8.10;;
37945;SDS011;23769;52.478;13.448;2023-10-09T14:58:26;14.65;;;7.32;;
37945;SDS011;23769;52.478;13.448;2023-10-09T15:00:54;12.63;;;7.68;;
37945;SDS011;23769;52.478;13.448;2023-10-09T15:03:21;13.15;;;8.35;;
37945;SDS011;23769;52.478;13.448;2023-10-09T15:05:49;10.77;;;7.53;;
37945;SDS011;23769;52.478;13.448;2023-10-09T15:08:17;14.13;;;7.65;;
37945;SDS011;23769;52.478;13.448;2023-10-09T15:10:45;14.73;;;9.18;;
37945;SDS011;23769;52.478;13.448;2023-10-09T15:13:13;12.15;;;9.27;;
37945;SDS011;23769;52.478;13.448;2023-10-09T15:15:41;10.55;;;7.82;;
37945;SDS011;23769;52.478;13.448;2023-10-09T15:18:09;10.43;;;7.72;;
37945;SDS011;23769;52.478;13.448;2023-10-09T15:20:38;10.18;;;7.68;;
37945;SDS011;23769;52.478;13.448;2023-10-09T15:23:06;9.77;;;7.15;;
37945;SDS011;23769;52.478;13.448;2023-10-09T15:25:35;11.23;;;7.80;;
37945;SDS011;23769;52.478;13.448;2023-10-09T15:28:05;15.30;;;7.93;;
37945;SDS011;23769;52.478;13.448;2023-10-09T15:30:34;13.05;;;8.70;;
37945;SDS011;23769;52.478;13.448;2023-10-09T15:33:04;16.90;;;10.50;;